sensor_id;sensor_type;location;lat;lon;timestamp;pressure;altitude;pressure_sealevel;temperature;humidity
69027;BME280;56080;47.594;19.116;2023-02-19T00:06:29;100303;;;12.08;66.41
69027;BME280;56080;47.594;19.116;2023-02-19T00:16:30;100305;;;11.93;66.48
69027;BME280;56080;47.594;19.116;2023-02-19T00:26:33;100299;;;11.86;66.24
69027;BME280;56080;47.594;19.116;2023-02-19T00:36:32;100300;;;11.79;66.26
69027;BME280;56080;47.594;19.116;2023-02-19T00:46:34;100298;;;11.73;66.39
69027;BME280;56080;47.594;19.116;2023-02-19T00:56:33;100301;;;11.73;66.05
69027;BME280;56080;47.594;19.116;2023-02-19T01:06:35;100300;;;11.71;66.11
69027;BME280;56080;47.594;19.116;2023-02-19T01:16:35;100287;;;11.59;66.77
69027;BME280;56080;47.594;19.116;2023-02-19T01:26:36;100281;;;11.59;67.23
69027;BME280;56080;47.594;19.116;2023-02-19T01:36:37;100269;;;11.52;67.50
69027;BME280;56080;47.594;19.116;2023-02-19T01:46:39;100272;;;11.43;67.50
69027;BME280;56080;47.594;19.116;2023-02-19T01:56:39;100278;;;11.50;67.19
69027;BME280;56080;47.594;19.116;2023-02-19T02:06:42;100275;;;11.35;68.35
69027;BME280;56080;47.594;19.116;2023-02-19T02:36:43;100251;;;11.35;69.71
69027;BME280;56080;47.594;19.116;2023-02-19T02:46:43;100250;;;11.31;70.02
69027;BME280;56080;47.594;19.116;2023-02-19T02:56:45;100255;;;11.26;69.76
69027;BME280;56080;47.594;19.116;2023-02-19T03:06:45;100256;;;11.35;70.13
69027;BME280;56080;47.594;19.116;2023-02-19T03:16:58;100252;;;11.29;71.33
69027;BME280;56080;47.594;19.116;2023-02-19T03:26:52;100269;;;11.20;71.62
69027;BME280;56080;47.594;19.116;2023-02-19T03:36:50;100280;;;11.20;71.72
69027;BME280;56080;47.594;19.116;2023-02-19T03:56:53;100296;;;11.21;71.97
69027;BME280;56080;47.594;19.116;2023-02-19T04:06:52;100279;;;11.21;72.04
69027;BME280;56080;47.594;19.116;2023-02-19T04:16:53;100275;;;11.18;72.16
69027;BME280;56080;47.594;19.116;2023-02-19T04:26:53;100269;;;11.11;72.28
69027;BME280;56080;47.594;19.116;2023-02-19T04:36:53;100267;;;11.08;72.21
69027;BME280;56080;47.594;19.116;2023-02-19T04:46:54;100270;;;10.99;72.45
69027;BME280;56080;47.594;19.116;2023-02-19T04:56:56;100277;;;10.93;72.20
69027;BME280;56080;47.594;19.116;2023-02-19T05:06:55;100245;;;10.96;71.55
69027;BME280;56080;47.594;19.116;2023-02-19T05:16:56;100235;;;11.00;70.69
69027;BME280;56080;47.594;19.116;2023-02-19T05:26:58;100239;;;11.04;70.84
69027;BME280;56080;47.594;19.116;2023-02-19T05:36:58;100256;;;11.13;70.40
69027;BME280;56080;47.594;19.116;2023-02-19T05:46:59;100262;;;11.10;70.35
69027;BME280;56080;47.594;19.116;2023-02-19T06:07:01;100271;;;11.04;70.52
69027;BME280;56080;47.594;19.116;2023-02-19T06:17:02;100262;;;10.94;71.27
69027;BME280;56080;47.594;19.116;2023-02-19T06:27:05;100248;;;11.05;71.24
69027;BME280;56080;47.594;19.116;2023-02-19T06:37:03;100246;;;11.16;72.23
69027;BME280;56080;47.594;19.116;2023-02-19T06:47:04;100245;;;11.18;74.27
69027;BME280;56080;47.594;19.116;2023-02-19T06:57:05;100262;;;11.27;75.69
69027;BME280;56080;47.594;19.116;2023-02-19T07:07:09;100260;;;11.24;77.06
69027;BME280;56080;47.594;19.116;2023-02-19T07:17:07;100266;;;11.29;77.40
69027;BME280;56080;47.594;19.116;2023-02-19T07:27:08;100253;;;11.28;77.95
69027;BME280;56080;47.594;19.116;2023-02-19T07:37:11;100245;;;11.38;77.78
69027;BME280;56080;47.594;19.116;2023-02-19T07:47:10;100231;;;11.51;77.18
69027;BME280;56080;47.594;19.116;2023-02-19T07:57:11;100241;;;11.65;76.28
69027;BME280;56080;47.594;19.116;2023-02-19T08:07:12;100270;;;11.76;75.41
69027;BME280;56080;47.594;19.116;2023-02-19T08:17:13;100268;;;11.81;75.58
69027;BME280;56080;47.594;19.116;2023-02-19T08:27:14;100287;;;11.75;79.04
69027;BME280;56080;47.594;19.116;2023-02-19T08:37:15;100283;;;11.56;83.01
69027;BME280;56080;47.594;19.116;2023-02-19T08:47:16;100277;;;11.36;88.61
69027;BME280;56080;47.594;19.116;2023-02-19T08:57:18;100262;;;11.39;90.70
69027;BME280;56080;47.594;19.116;2023-02-19T09:07:19;100267;;;11.27;95.12
69027;BME280;56080;47.594;19.116;2023-02-19T09:17:19;100266;;;11.01;97.63
69027;BME280;56080;47.594;19.116;2023-02-19T09:27:20;100267;;;10.88;99.31
69027;BME280;56080;47.594;19.116;2023-02-19T09:37:25;100255;;;10.78;100.00
69027;BME280;56080;47.594;19.116;2023-02-19T09:47:23;100256;;;11.08;99.39
69027;BME280;56080;47.594;19.116;2023-02-19T09:57:23;100231;;;11.48;98.45
69027;BME280;56080;47.594;19.116;2023-02-19T10:07:25;100203;;;11.73;95.75
69027;BME280;56080;47.594;19.116;2023-02-19T10:17:29;100191;;;13.76;87.30
69027;BME280;56080;47.594;19.116;2023-02-19T10:27:28;100175;;;13.88;80.91
69027;BME280;56080;47.594;19.116;2023-02-19T10:37:28;100147;;;13.16;82.30
69027;BME280;56080;47.594;19.116;2023-02-19T10:47:29;100119;;;12.91;82.81
69027;BME280;56080;47.594;19.116;2023-02-19T10:57:32;100111;;;13.30;81.33
69027;BME280;56080;47.594;19.116;2023-02-19T11:07:35;100085;;;13.69;76.64
69027;BME280;56080;47.594;19.116;2023-02-19T11:17:31;100088;;;13.92;71.60
69027;BME280;56080;47.594;19.116;2023-02-19T11:27:33;100067;;;14.13;71.17
69027;BME280;56080;47.594;19.116;2023-02-19T11:37:33;100055;;;14.45;67.56
69027;BME280;56080;47.594;19.116;2023-02-19T11:57:43;100027;;;14.28;61.96
69027;BME280;56080;47.594;19.116;2023-02-19T12:07:45;100020;;;14.38;61.13
69027;BME280;56080;47.594;19.116;2023-02-19T12:47:52;100031;;;14.83;60.86
69027;BME280;56080;47.594;19.116;2023-02-19T12:57:43;100027;;;14.18;60.33
69027;BME280;56080;47.594;19.116;2023-02-19T13:07:49;100045;;;13.93;63.67
69027;BME280;56080;47.594;19.116;2023-02-19T13:17:48;100056;;;14.01;63.58
69027;BME280;56080;47.594;19.116;2023-02-19T13:27:55;100063;;;13.70;69.78
69027;BME280;56080;47.594;19.116;2023-02-19T13:37:47;100063;;;13.62;72.90
69027;BME280;56080;47.594;19.116;2023-02-19T13:57:50;100080;;;13.20;72.44
69027;BME280;56080;47.594;19.116;2023-02-19T14:17:56;100125;;;13.10;68.19
69027;BME280;56080;47.594;19.116;2023-02-19T14:28:13;100137;;;12.90;62.15
69027;BME280;56080;47.594;19.116;2023-02-19T14:37:54;100164;;;13.00;62.27
69027;BME280;56080;47.594;19.116;2023-02-19T14:47:58;100191;;;12.75;63.56
69027;BME280;56080;47.594;19.116;2023-02-19T14:57:58;100165;;;12.76;63.63
69027;BME280;56080;47.594;19.116;2023-02-19T15:07:58;100168;;;12.67;63.69
69027;BME280;56080;47.594;19.116;2023-02-19T15:17:58;100174;;;12.38;64.85
69027;BME280;56080;47.594;19.116;2023-02-19T15:37:59;100142;;;11.99;67.78
69027;BME280;56080;47.594;19.116;2023-02-19T15:48:05;100162;;;11.82;68.97
69027;BME280;56080;47.594;19.116;2023-02-19T16:08:05;100182;;;11.67;70.78
69027;BME280;56080;47.594;19.116;2023-02-19T16:18:05;100215;;;11.71;71.53
69027;BME280;56080;47.594;19.116;2023-02-19T16:28:10;100227;;;11.63;70.78
69027;BME280;56080;47.594;19.116;2023-02-19T16:38:11;100239;;;11.38;71.29
69027;BME280;56080;47.594;19.116;2023-02-19T16:48:08;100258;;;11.06;74.23
69027;BME280;56080;47.594;19.116;2023-02-19T16:58:08;100257;;;10.88;74.10
69027;BME280;56080;47.594;19.116;2023-02-19T17:18:09;100301;;;10.54;75.71
69027;BME280;56080;47.594;19.116;2023-02-19T17:28:09;100288;;;10.46;75.64
69027;BME280;56080;47.594;19.116;2023-02-19T17:38:13;100302;;;10.28;74.12
69027;BME280;56080;47.594;19.116;2023-02-19T17:48:12;100313;;;10.13;74.40
69027;BME280;56080;47.594;19.116;2023-02-19T17:58:12;100344;;;10.18;73.12
69027;BME280;56080;47.594;19.116;2023-02-19T18:08:14;100354;;;10.10;73.89
69027;BME280;56080;47.594;19.116;2023-02-19T18:18:18;100398;;;10.12;73.81
69027;BME280;56080;47.594;19.116;2023-02-19T18:38:15;100444;;;9.78;76.02
69027;BME280;56080;47.594;19.116;2023-02-19T18:48:20;100465;;;9.69;76.56
69027;BME280;56080;47.594;19.116;2023-02-19T18:58:18;100494;;;9.60;76.46
69027;BME280;56080;47.594;19.116;2023-02-19T19:08:18;100488;;;9.64;76.06
69027;BME280;56080;47.594;19.116;2023-02-19T19:18:24;100477;;;9.55;75.38
69027;BME280;56080;47.594;19.116;2023-02-19T19:38:19;100474;;;9.32;76.31
69027;BME280;56080;47.594;19.116;2023-02-19T19:48:22;100491;;;9.34;76.04
69027;BME280;56080;47.594;19.116;2023-02-19T19:58:23;100511;;;9.35;75.76
69027;BME280;56080;47.594;19.116;2023-02-19T20:08:23;100576;;;9.04;73.07
69027;BME280;56080;47.594;19.116;2023-02-19T20:18:25;100600;;;8.92;71.23
69027;BME280;56080;47.594;19.116;2023-02-19T20:28:23;100642;;;8.84;69.99
69027;BME280;56080;47.594;19.116;2023-02-19T20:38:28;100654;;;8.76;66.13
69027;BME280;56080;47.594;19.116;2023-02-19T20:48:24;100682;;;8.68;64.71
69027;BME280;56080;47.594;19.116;2023-02-19T20:58:27;100692;;;8.42;63.71
69027;BME280;56080;47.594;19.116;2023-02-19T21:08:28;100720;;;8.33;62.30
69027;BME280;56080;47.594;19.116;2023-02-19T21:18:26;100723;;;7.86;59.79
69027;BME280;56080;47.594;19.116;2023-02-19T21:28:26;100745;;;7.59;58.77
69027;BME280;56080;47.594;19.116;2023-02-19T21:38:27;100748;;;7.80;57.84
69027;BME280;56080;47.594;19.116;2023-02-19T21:48:28;100747;;;7.36;56.58
69027;BME280;56080;47.594;19.116;2023-02-19T21:58:28;100727;;;7.40;55.48
69027;BME280;56080;47.594;19.116;2023-02-19T22:08:28;100736;;;7.06;54.88
69027;BME280;56080;47.594;19.116;2023-02-19T22:18:29;100744;;;6.99;54.68
69027;BME280;56080;47.594;19.116;2023-02-19T22:28:30;100739;;;6.81;53.77
69027;BME280;56080;47.594;19.116;2023-02-19T22:38:30;100741;;;6.59;53.67
69027;BME280;56080;47.594;19.116;2023-02-19T22:48:30;100759;;;6.36;53.65
69027;BME280;56080;47.594;19.116;2023-02-19T22:58:31;100728;;;6.14;53.16
69027;BME280;56080;47.594;19.116;2023-02-19T23:08:31;100789;;;6.13;53.56
69027;BME280;56080;47.594;19.116;2023-02-19T23:18:32;100782;;;6.04;53.75
69027;BME280;56080;47.594;19.116;2023-02-19T23:28:32;100827;;;5.81;54.32
69027;BME280;56080;47.594;19.116;2023-02-19T23:38:33;100831;;;5.94;53.82
69027;BME280;56080;47.594;19.116;2023-02-19T23:48:33;100837;;;5.80;53.92
69027;BME280;56080;47.594;19.116;2023-02-19T23:58:34;100843;;;5.84;51.57
